sensor_id;sensor_type;location;lat;lon;timestamp;temperature;humidity
19340;HTU21D;9804;52.350;6.684;2023-09-18T00:02:24;20.21;118.99
19340;HTU21D;9804;52.350;6.684;2023-09-18T00:04:50;20.26;118.99
19340;HTU21D;9804;52.350;6.684;2023-09-18T00:07:15;20.31;118.99
19340;HTU21D;9804;52.350;6.684;2023-09-18T00:09:41;20.33;118.99
19340;HTU21D;9804;52.350;6.684;2023-09-18T00:12:06;20.35;118.99
19340;HTU21D;9804;52.350;6.684;2023-09-18T00:14:32;20.31;118.99
19340;HTU21D;9804;52.350;6.684;2023-09-18T00:16:57;20.31;118.99
19340;HTU21D;9804;52.350;6.684;2023-09-18T00:19:23;20.42;118.99
19340;HTU21D;9804;52.350;6.684;2023-09-18T00:21:49;20.51;118.99
19340;HTU21D;9804;52.350;6.684;2023-09-18T00:24:17;20.60;118.99
19340;HTU21D;9804;52.350;6.684;2023-09-18T00:26:42;20.68;118.99
19340;HTU21D;9804;52.350;6.684;2023-09-18T00:29:07;20.73;118.99
19340;HTU21D;9804;52.350;6.684;2023-09-18T00:31:33;20.64;118.99
19340;HTU21D;9804;52.350;6.684;2023-09-18T00:33:58;20.64;118.99
19340;HTU21D;9804;52.350;6.684;2023-09-18T00:36:23;20.76;118.99
19340;HTU21D;9804;52.350;6.684;2023-09-18T00:38:49;20.79;118.99
19340;HTU21D;9804;52.350;6.684;2023-09-18T00:41:14;20.74;118.99
19340;HTU21D;9804;52.350;6.684;2023-09-18T00:43:40;20.76;118.99
19340;HTU21D;9804;52.350;6.684;2023-09-18T00:46:05;20.80;118.99
19340;HTU21D;9804;52.350;6.684;2023-09-18T00:48:31;20.79;118.99
19340;HTU21D;9804;52.350;6.684;2023-09-18T00:50:56;20.77;118.99
19340;HTU21D;9804;52.350;6.684;2023-09-18T00:53:23;20.81;118.99
19340;HTU21D;9804;52.350;6.684;2023-09-18T00:55:52;20.88;118.99
19340;HTU21D;9804;52.350;6.684;2023-09-18T00:58:18;20.89;118.99
19340;HTU21D;9804;52.350;6.684;2023-09-18T01:00:44;20.85;118.99
19340;HTU21D;9804;52.350;6.684;2023-09-18T01:03:09;20.79;118.99
19340;HTU21D;9804;52.350;6.684;2023-09-18T01:05:36;20.87;118.99
19340;HTU21D;9804;52.350;6.684;2023-09-18T01:08:01;20.88;118.99
19340;HTU21D;9804;52.350;6.684;2023-09-18T01:10:34;20.91;118.99
19340;HTU21D;9804;52.350;6.684;2023-09-18T01:13:08;20.90;118.99
19340;HTU21D;9804;52.350;6.684;2023-09-18T01:15:52;20.83;118.99
19340;HTU21D;9804;52.350;6.684;2023-09-18T01:18:19;20.87;118.99
19340;HTU21D;9804;52.350;6.684;2023-09-18T01:20:44;20.83;118.99
19340;HTU21D;9804;52.350;6.684;2023-09-18T01:23:10;20.80;118.99
19340;HTU21D;9804;52.350;6.684;2023-09-18T01:25:37;20.83;118.99
19340;HTU21D;9804;52.350;6.684;2023-09-18T01:28:02;20.85;118.99
19340;HTU21D;9804;52.350;6.684;2023-09-18T01:30:28;20.78;118.99
19340;HTU21D;9804;52.350;6.684;2023-09-18T01:32:55;20.81;118.99
19340;HTU21D;9804;52.350;6.684;2023-09-18T01:35:21;20.84;118.99
19340;HTU21D;9804;52.350;6.684;2023-09-18T01:37:49;20.83;118.99
19340;HTU21D;9804;52.350;6.684;2023-09-18T01:40:15;20.81;118.99
19340;HTU21D;9804;52.350;6.684;2023-09-18T01:42:41;20.87;118.99
19340;HTU21D;9804;52.350;6.684;2023-09-18T01:45:07;20.75;118.99
19340;HTU21D;9804;52.350;6.684;2023-09-18T01:47:33;20.85;118.99
19340;HTU21D;9804;52.350;6.684;2023-09-18T01:50:03;20.86;118.99
19340;HTU21D;9804;52.350;6.684;2023-09-18T01:52:30;20.91;118.99
19340;HTU21D;9804;52.350;6.684;2023-09-18T01:54:56;20.83;118.99
19340;HTU21D;9804;52.350;6.684;2023-09-18T01:57:21;20.89;118.99
19340;HTU21D;9804;52.350;6.684;2023-09-18T01:59:47;20.88;118.99
19340;HTU21D;9804;52.350;6.684;2023-09-18T02:02:12;20.89;118.99
19340;HTU21D;9804;52.350;6.684;2023-09-18T02:04:38;20.81;118.99
19340;HTU21D;9804;52.350;6.684;2023-09-18T02:07:03;20.88;118.99
19340;HTU21D;9804;52.350;6.684;2023-09-18T02:09:29;20.89;118.99
19340;HTU21D;9804;52.350;6.684;2023-09-18T02:11:54;20.76;118.99
19340;HTU21D;9804;52.350;6.684;2023-09-18T02:14:19;20.83;118.99
19340;HTU21D;9804;52.350;6.684;2023-09-18T02:16:45;20.81;118.99
19340;HTU21D;9804;52.350;6.684;2023-09-18T02:19:12;20.89;118.99
19340;HTU21D;9804;52.350;6.684;2023-09-18T02:21:39;20.87;118.99
19340;HTU21D;9804;52.350;6.684;2023-09-18T02:24:04;20.80;118.99
19340;HTU21D;9804;52.350;6.684;2023-09-18T02:26:30;20.88;118.99
19340;HTU21D;9804;52.350;6.684;2023-09-18T02:28:59;20.87;118.99
19340;HTU21D;9804;52.350;6.684;2023-09-18T02:31:24;20.83;118.99
19340;HTU21D;9804;52.350;6.684;2023-09-18T02:33:50;20.87;118.99
19340;HTU21D;9804;52.350;6.684;2023-09-18T02:36:15;20.90;118.99
19340;HTU21D;9804;52.350;6.684;2023-09-18T02:38:41;20.90;118.99
19340;HTU21D;9804;52.350;6.684;2023-09-18T02:41:06;20.99;118.99
19340;HTU21D;9804;52.350;6.684;2023-09-18T02:43:32;20.98;118.99
19340;HTU21D;9804;52.350;6.684;2023-09-18T02:45:57;21.03;118.99
19340;HTU21D;9804;52.350;6.684;2023-09-18T02:48:22;21.04;118.99
19340;HTU21D;9804;52.350;6.684;2023-09-18T02:50:48;21.06;118.99
19340;HTU21D;9804;52.350;6.684;2023-09-18T02:53:18;21.11;118.99
19340;HTU21D;9804;52.350;6.684;2023-09-18T02:55:49;21.14;118.99
19340;HTU21D;9804;52.350;6.684;2023-09-18T02:58:14;21.15;118.99
19340;HTU21D;9804;52.350;6.684;2023-09-18T03:00:44;21.18;118.99
19340;HTU21D;9804;52.350;6.684;2023-09-18T03:03:11;21.18;118.99
19340;HTU21D;9804;52.350;6.684;2023-09-18T03:05:36;21.10;118.99
19340;HTU21D;9804;52.350;6.684;2023-09-18T03:08:03;21.09;118.99
19340;HTU21D;9804;52.350;6.684;2023-09-18T03:10:33;21.23;118.99
19340;HTU21D;9804;52.350;6.684;2023-09-18T03:12:59;21.20;118.99
19340;HTU21D;9804;52.350;6.684;2023-09-18T03:15:25;21.21;118.99
19340;HTU21D;9804;52.350;6.684;2023-09-18T03:17:50;21.28;118.99
19340;HTU21D;9804;52.350;6.684;2023-09-18T03:20:16;21.25;118.99
19340;HTU21D;9804;52.350;6.684;2023-09-18T03:22:41;21.25;118.99
19340;HTU21D;9804;52.350;6.684;2023-09-18T03:25:07;21.25;118.99
19340;HTU21D;9804;52.350;6.684;2023-09-18T03:27:32;21.22;118.99
19340;HTU21D;9804;52.350;6.684;2023-09-18T03:29:58;21.28;118.99
19340;HTU21D;9804;52.350;6.684;2023-09-18T03:32:23;21.31;118.99
19340;HTU21D;9804;52.350;6.684;2023-09-18T03:34:52;21.28;118.99
19340;HTU21D;9804;52.350;6.684;2023-09-18T03:37:18;21.25;118.99
19340;HTU21D;9804;52.350;6.684;2023-09-18T03:39:43;21.25;118.99
19340;HTU21D;9804;52.350;6.684;2023-09-18T03:42:09;21.29;118.99
19340;HTU21D;9804;52.350;6.684;2023-09-18T03:44:34;21.25;118.99
19340;HTU21D;9804;52.350;6.684;2023-09-18T03:47:00;21.31;118.99
19340;HTU21D;9804;52.350;6.684;2023-09-18T03:49:27;21.31;118.99
19340;HTU21D;9804;52.350;6.684;2023-09-18T03:51:53;21.30;118.99
19340;HTU21D;9804;52.350;6.684;2023-09-18T03:54:18;21.29;118.99
19340;HTU21D;9804;52.350;6.684;2023-09-18T03:56:44;21.31;118.99
19340;HTU21D;9804;52.350;6.684;2023-09-18T03:59:11;21.31;118.99
19340;HTU21D;9804;52.350;6.684;2023-09-18T04:01:36;21.29;118.99
19340;HTU21D;9804;52.350;6.684;2023-09-18T04:04:02;21.27;118.99
19340;HTU21D;9804;52.350;6.684;2023-09-18T04:06:41;21.35;118.99
19340;HTU21D;9804;52.350;6.684;2023-09-18T04:09:06;21.37;118.99
19340;HTU21D;9804;52.350;6.684;2023-09-18T04:11:32;21.39;118.99
19340;HTU21D;9804;52.350;6.684;2023-09-18T04:13:58;21.40;118.99
19340;HTU21D;9804;52.350;6.684;2023-09-18T04:16:25;21.39;118.99
19340;HTU21D;9804;52.350;6.684;2023-09-18T04:18:50;21.40;118.99
19340;HTU21D;9804;52.350;6.684;2023-09-18T04:21:16;21.39;118.99
19340;HTU21D;9804;52.350;6.684;2023-09-18T04:23:41;21.34;118.99
19340;HTU21D;9804;52.350;6.684;2023-09-18T04:26:06;21.34;118.99
19340;HTU21D;9804;52.350;6.684;2023-09-18T04:28:32;21.37;118.99
19340;HTU21D;9804;52.350;6.684;2023-09-18T04:30:57;21.38;118.99
19340;HTU21D;9804;52.350;6.684;2023-09-18T04:33:22;21.39;118.99
19340;HTU21D;9804;52.350;6.684;2023-09-18T04:35:48;21.40;118.99
19340;HTU21D;9804;52.350;6.684;2023-09-18T04:38:14;21.37;118.99
19340;HTU21D;9804;52.350;6.684;2023-09-18T04:40:44;21.45;118.99
19340;HTU21D;9804;52.350;6.684;2023-09-18T04:43:11;21.47;118.99
19340;HTU21D;9804;52.350;6.684;2023-09-18T04:45:36;21.46;118.99
19340;HTU21D;9804;52.350;6.684;2023-09-18T04:48:02;21.44;118.99
19340;HTU21D;9804;52.350;6.684;2023-09-18T04:50:28;21.45;118.99
19340;HTU21D;9804;52.350;6.684;2023-09-18T04:52:53;21.48;118.99
19340;HTU21D;9804;52.350;6.684;2023-09-18T04:55:21;21.45;118.99
19340;HTU21D;9804;52.350;6.684;2023-09-18T04:57:46;21.48;118.99
19340;HTU21D;9804;52.350;6.684;2023-09-18T05:00:12;21.50;118.99
19340;HTU21D;9804;52.350;6.684;2023-09-18T05:02:38;21.50;118.99
19340;HTU21D;9804;52.350;6.684;2023-09-18T05:05:04;21.53;118.99
19340;HTU21D;9804;52.350;6.684;2023-09-18T05:07:30;21.55;118.99
19340;HTU21D;9804;52.350;6.684;2023-09-18T05:09:55;21.63;118.99
19340;HTU21D;9804;52.350;6.684;2023-09-18T05:12:21;21.63;118.99
19340;HTU21D;9804;52.350;6.684;2023-09-18T05:14:47;21.65;118.99
19340;HTU21D;9804;52.350;6.684;2023-09-18T05:17:15;21.68;118.99
19340;HTU21D;9804;52.350;6.684;2023-09-18T05:19:41;21.67;118.99
19340;HTU21D;9804;52.350;6.684;2023-09-18T05:22:08;21.79;118.99
19340;HTU21D;9804;52.350;6.684;2023-09-18T05:24:33;21.77;118.99
19340;HTU21D;9804;52.350;6.684;2023-09-18T05:26:59;21.87;118.99
19340;HTU21D;9804;52.350;6.684;2023-09-18T05:29:24;21.99;118.99
19340;HTU21D;9804;52.350;6.684;2023-09-18T05:31:49;22.03;118.99
19340;HTU21D;9804;52.350;6.684;2023-09-18T05:34:15;22.12;118.99
19340;HTU21D;9804;52.350;6.684;2023-09-18T05:36:40;22.21;118.99
19340;HTU21D;9804;52.350;6.684;2023-09-18T05:39:06;22.25;118.99
19340;HTU21D;9804;52.350;6.684;2023-09-18T05:41:37;22.33;118.99
19340;HTU21D;9804;52.350;6.684;2023-09-18T05:44:02;22.34;118.99
19340;HTU21D;9804;52.350;6.684;2023-09-18T05:46:30;22.44;118.99
19340;HTU21D;9804;52.350;6.684;2023-09-18T05:48:55;22.43;118.99
19340;HTU21D;9804;52.350;6.684;2023-09-18T05:51:22;22.49;118.99
19340;HTU21D;9804;52.350;6.684;2023-09-18T05:53:48;22.39;118.99
19340;HTU21D;9804;52.350;6.684;2023-09-18T05:56:13;22.61;118.99
19340;HTU21D;9804;52.350;6.684;2023-09-18T05:58:39;22.50;118.99
19340;HTU21D;9804;52.350;6.684;2023-09-18T06:01:06;22.48;118.99
19340;HTU21D;9804;52.350;6.684;2023-09-18T06:03:31;22.42;118.99
19340;HTU21D;9804;52.350;6.684;2023-09-18T06:06:01;22.52;118.99
19340;HTU21D;9804;52.350;6.684;2023-09-18T06:08:26;22.54;118.99
19340;HTU21D;9804;52.350;6.684;2023-09-18T06:10:53;22.58;118.99
19340;HTU21D;9804;52.350;6.684;2023-09-18T06:13:20;22.61;118.99
19340;HTU21D;9804;52.350;6.684;2023-09-18T06:15:46;22.69;118.99
19340;HTU21D;9804;52.350;6.684;2023-09-18T06:18:11;22.73;118.99
19340;HTU21D;9804;52.350;6.684;2023-09-18T06:20:37;22.57;118.99
19340;HTU21D;9804;52.350;6.684;2023-09-18T06:23:03;22.54;118.99
19340;HTU21D;9804;52.350;6.684;2023-09-18T06:25:29;22.65;118.99
19340;HTU21D;9804;52.350;6.684;2023-09-18T06:27:56;22.60;118.99
19340;HTU21D;9804;52.350;6.684;2023-09-18T06:30:21;22.66;118.99
19340;HTU21D;9804;52.350;6.684;2023-09-18T06:32:47;22.63;118.99
19340;HTU21D;9804;52.350;6.684;2023-09-18T06:35:13;22.63;118.99
19340;HTU21D;9804;52.350;6.684;2023-09-18T06:37:38;22.61;118.99
19340;HTU21D;9804;52.350;6.684;2023-09-18T06:40:04;22.67;118.99
19340;HTU21D;9804;52.350;6.684;2023-09-18T06:42:30;22.65;118.99
19340;HTU21D;9804;52.350;6.684;2023-09-18T06:44:55;22.76;118.99
19340;HTU21D;9804;52.350;6.684;2023-09-18T06:47:21;22.64;118.99
19340;HTU21D;9804;52.350;6.684;2023-09-18T06:49:46;22.82;118.99
19340;HTU21D;9804;52.350;6.684;2023-09-18T06:52:12;22.88;118.99
19340;HTU21D;9804;52.350;6.684;2023-09-18T06:54:38;22.90;118.99
19340;HTU21D;9804;52.350;6.684;2023-09-18T06:57:03;22.81;118.99
19340;HTU21D;9804;52.350;6.684;2023-09-18T06:59:29;22.97;118.99
19340;HTU21D;9804;52.350;6.684;2023-09-18T07:01:55;22.92;118.99
19340;HTU21D;9804;52.350;6.684;2023-09-18T07:04:21;22.97;118.99
19340;HTU21D;9804;52.350;6.684;2023-09-18T07:06:46;23.03;118.99
19340;HTU21D;9804;52.350;6.684;2023-09-18T07:09:12;22.99;118.99
19340;HTU21D;9804;52.350;6.684;2023-09-18T07:11:37;23.00;118.99
19340;HTU21D;9804;52.350;6.684;2023-09-18T07:14:03;23.01;118.99
19340;HTU21D;9804;52.350;6.684;2023-09-18T07:16:31;22.88;118.99
19340;HTU21D;9804;52.350;6.684;2023-09-18T07:18:56;22.95;118.99
19340;HTU21D;9804;52.350;6.684;2023-09-18T07:21:21;23.05;118.99
19340;HTU21D;9804;52.350;6.684;2023-09-18T07:23:47;23.08;118.99
19340;HTU21D;9804;52.350;6.684;2023-09-18T07:26:12;23.05;118.99
19340;HTU21D;9804;52.350;6.684;2023-09-18T07:28:38;23.21;118.99
19340;HTU21D;9804;52.350;6.684;2023-09-18T07:31:07;23.11;118.99
19340;HTU21D;9804;52.350;6.684;2023-09-18T07:33:34;23.15;118.99
19340;HTU21D;9804;52.350;6.684;2023-09-18T07:35:59;23.20;118.99
19340;HTU21D;9804;52.350;6.684;2023-09-18T07:38:25;23.18;118.99
19340;HTU21D;9804;52.350;6.684;2023-09-18T07:40:50;23.21;118.99
19340;HTU21D;9804;52.350;6.684;2023-09-18T07:43:15;23.29;118.99
19340;HTU21D;9804;52.350;6.684;2023-09-18T07:45:41;23.43;118.99
19340;HTU21D;9804;52.350;6.684;2023-09-18T07:48:07;23.40;118.99
19340;HTU21D;9804;52.350;6.684;2023-09-18T07:50:36;23.62;118.99
19340;HTU21D;9804;52.350;6.684;2023-09-18T07:53:02;23.69;118.99
19340;HTU21D;9804;52.350;6.684;2023-09-18T07:55:28;23.69;118.99
19340;HTU21D;9804;52.350;6.684;2023-09-18T07:57:54;23.71;118.99
19340;HTU21D;9804;52.350;6.684;2023-09-18T08:00:20;23.82;118.99
19340;HTU21D;9804;52.350;6.684;2023-09-18T08:02:48;23.94;98.97
19340;HTU21D;9804;52.350;6.684;2023-09-18T08:05:15;23.92;59.63
19340;HTU21D;9804;52.350;6.684;2023-09-18T08:07:40;24.12;30.11
19340;HTU21D;9804;52.350;6.684;2023-09-18T08:10:06;23.91;3.73
19340;HTU21D;9804;52.350;6.684;2023-09-18T08:12:34;24.15;-6.00
19340;HTU21D;9804;52.350;6.684;2023-09-18T08:14:59;24.23;-6.00
19340;HTU21D;9804;52.350;6.684;2023-09-18T08:17:25;24.18;-6.00
19340;HTU21D;9804;52.350;6.684;2023-09-18T08:19:52;24.21;-6.00
19340;HTU21D;9804;52.350;6.684;2023-09-18T08:22:18;24.20;-6.00
19340;HTU21D;9804;52.350;6.684;2023-09-18T08:24:46;24.16;-6.00
19340;HTU21D;9804;52.350;6.684;2023-09-18T08:27:14;24.11;-6.00
19340;HTU21D;9804;52.350;6.684;2023-09-18T08:29:42;24.09;-6.00
19340;HTU21D;9804;52.350;6.684;2023-09-18T08:32:07;24.03;-6.00
19340;HTU21D;9804;52.350;6.684;2023-09-18T08:34:33;24.29;-6.00
19340;HTU21D;9804;52.350;6.684;2023-09-18T08:36:58;24.40;-6.00
19340;HTU21D;9804;52.350;6.684;2023-09-18T08:39:23;24.39;-6.00
19340;HTU21D;9804;52.350;6.684;2023-09-18T08:41:51;24.48;-6.00
19340;HTU21D;9804;52.350;6.684;2023-09-18T08:44:21;24.70;-6.00
19340;HTU21D;9804;52.350;6.684;2023-09-18T08:46:49;24.74;-6.00
19340;HTU21D;9804;52.350;6.684;2023-09-18T08:49:14;24.74;-6.00
19340;HTU21D;9804;52.350;6.684;2023-09-18T08:51:42;24.68;-6.00
19340;HTU21D;9804;52.350;6.684;2023-09-18T08:54:08;24.63;-6.00
19340;HTU21D;9804;52.350;6.684;2023-09-18T08:56:33;24.46;-6.00
19340;HTU21D;9804;52.350;6.684;2023-09-18T08:59:00;24.61;-6.00
19340;HTU21D;9804;52.350;6.684;2023-09-18T09:01:25;24.68;-6.00
19340;HTU21D;9804;52.350;6.684;2023-09-18T09:03:51;24.89;-6.00
19340;HTU21D;9804;52.350;6.684;2023-09-18T09:06:16;24.94;-6.00
19340;HTU21D;9804;52.350;6.684;2023-09-18T09:08:42;24.89;-6.00
19340;HTU21D;9804;52.350;6.684;2023-09-18T09:11:08;24.72;-6.00
19340;HTU21D;9804;52.350;6.684;2023-09-18T09:13:33;24.82;-6.00
19340;HTU21D;9804;52.350;6.684;2023-09-18T09:15:59;25.08;-6.00
19340;HTU21D;9804;52.350;6.684;2023-09-18T09:18:29;25.09;-6.00
19340;HTU21D;9804;52.350;6.684;2023-09-18T09:20:58;25.19;-6.00
19340;HTU21D;9804;52.350;6.684;2023-09-18T09:23:29;24.95;-6.00
19340;HTU21D;9804;52.350;6.684;2023-09-18T09:26:13;24.77;-6.00
19340;HTU21D;9804;52.350;6.684;2023-09-18T09:28:39;24.87;-6.00
19340;HTU21D;9804;52.350;6.684;2023-09-18T09:31:04;24.90;-6.00
19340;HTU21D;9804;52.350;6.684;2023-09-18T09:33:30;24.82;-6.00
19340;HTU21D;9804;52.350;6.684;2023-09-18T09:35:56;25.08;-6.00
19340;HTU21D;9804;52.350;6.684;2023-09-18T09:38:29;24.99;-6.00
19340;HTU21D;9804;52.350;6.684;2023-09-18T09:40:57;25.39;-6.00
19340;HTU21D;9804;52.350;6.684;2023-09-18T09:43:25;25.16;-6.00
19340;HTU21D;9804;52.350;6.684;2023-09-18T09:46:00;25.40;-6.00
19340;HTU21D;9804;52.350;6.684;2023-09-18T09:48:25;25.38;-6.00
19340;HTU21D;9804;52.350;6.684;2023-09-18T09:50:51;25.27;-6.00
19340;HTU21D;9804;52.350;6.684;2023-09-18T09:53:18;25.19;-6.00
19340;HTU21D;9804;52.350;6.684;2023-09-18T09:55:44;25.16;-6.00
19340;HTU21D;9804;52.350;6.684;2023-09-18T09:58:10;25.14;-6.00
19340;HTU21D;9804;52.350;6.684;2023-09-18T10:00:45;25.19;-6.00
19340;HTU21D;9804;52.350;6.684;2023-09-18T10:03:14;24.97;-6.00
19340;HTU21D;9804;52.350;6.684;2023-09-18T10:05:45;25.14;-6.00
19340;HTU21D;9804;52.350;6.684;2023-09-18T10:08:23;25.14;-6.00
19340;HTU21D;9804;52.350;6.684;2023-09-18T10:10:51;25.67;-6.00
19340;HTU21D;9804;52.350;6.684;2023-09-18T10:13:17;25.52;-6.00
19340;HTU21D;9804;52.350;6.684;2023-09-18T10:15:44;25.17;-6.00
19340;HTU21D;9804;52.350;6.684;2023-09-18T10:26:42;25.08;-6.00
19340;HTU21D;9804;52.350;6.684;2023-09-18T10:29:12;25.17;-6.00
19340;HTU21D;9804;52.350;6.684;2023-09-18T10:31:39;25.76;-6.00
19340;HTU21D;9804;52.350;6.684;2023-09-18T10:34:06;25.52;-6.00
19340;HTU21D;9804;52.350;6.684;2023-09-18T10:36:33;25.64;-6.00
19340;HTU21D;9804;52.350;6.684;2023-09-18T10:39:00;25.93;-6.00
19340;HTU21D;9804;52.350;6.684;2023-09-18T10:41:26;26.05;-6.00
19340;HTU21D;9804;52.350;6.684;2023-09-18T10:43:56;26.01;-6.00
19340;HTU21D;9804;52.350;6.684;2023-09-18T10:46:25;26.09;-6.00
19340;HTU21D;9804;52.350;6.684;2023-09-18T10:48:51;25.71;-6.00
19340;HTU21D;9804;52.350;6.684;2023-09-18T10:51:21;25.66;-6.00
19340;HTU21D;9804;52.350;6.684;2023-09-18T10:53:48;25.93;-6.00
19340;HTU21D;9804;52.350;6.684;2023-09-18T10:56:17;26.27;-6.00
19340;HTU21D;9804;52.350;6.684;2023-09-18T10:58:43;26.55;-6.00
19340;HTU21D;9804;52.350;6.684;2023-09-18T11:01:12;26.48;-6.00
19340;HTU21D;9804;52.350;6.684;2023-09-18T11:03:38;26.28;-6.00
19340;HTU21D;9804;52.350;6.684;2023-09-18T11:06:07;26.30;-6.00
19340;HTU21D;9804;52.350;6.684;2023-09-18T11:08:45;26.65;-6.00
19340;HTU21D;9804;52.350;6.684;2023-09-18T11:11:12;26.60;-6.00
19340;HTU21D;9804;52.350;6.684;2023-09-18T11:13:45;26.57;-6.00
19340;HTU21D;9804;52.350;6.684;2023-09-18T11:19:04;26.72;-6.00
19340;HTU21D;9804;52.350;6.684;2023-09-18T11:21:32;26.68;-6.00
19340;HTU21D;9804;52.350;6.684;2023-09-18T11:26:33;26.51;-6.00
19340;HTU21D;9804;52.350;6.684;2023-09-18T11:29:07;26.54;-6.00
19340;HTU21D;9804;52.350;6.684;2023-09-18T11:31:48;26.34;-6.00
19340;HTU21D;9804;52.350;6.684;2023-09-18T11:34:26;26.46;-6.00
19340;HTU21D;9804;52.350;6.684;2023-09-18T11:36:54;26.34;-6.00
19340;HTU21D;9804;52.350;6.684;2023-09-18T11:39:40;26.48;-6.00
19340;HTU21D;9804;52.350;6.684;2023-09-18T11:42:18;25.96;-6.00
19340;HTU21D;9804;52.350;6.684;2023-09-18T11:44:44;25.83;-6.00
19340;HTU21D;9804;52.350;6.684;2023-09-18T11:47:15;26.07;-6.00
19340;HTU21D;9804;52.350;6.684;2023-09-18T11:49:54;26.50;-6.00
19340;HTU21D;9804;52.350;6.684;2023-09-18T11:52:22;27.06;-6.00
19340;HTU21D;9804;52.350;6.684;2023-09-18T11:54:48;26.90;-6.00
19340;HTU21D;9804;52.350;6.684;2023-09-18T11:57:14;26.86;-6.00
19340;HTU21D;9804;52.350;6.684;2023-09-18T11:59:40;27.06;-6.00
19340;HTU21D;9804;52.350;6.684;2023-09-18T12:02:08;26.47;-6.00
19340;HTU21D;9804;52.350;6.684;2023-09-18T12:04:34;26.57;-6.00
19340;HTU21D;9804;52.350;6.684;2023-09-18T12:07:00;26.26;-6.00
19340;HTU21D;9804;52.350;6.684;2023-09-18T12:09:31;26.51;-6.00
19340;HTU21D;9804;52.350;6.684;2023-09-18T12:11:59;26.43;-6.00
19340;HTU21D;9804;52.350;6.684;2023-09-18T12:14:30;26.48;-6.00
19340;HTU21D;9804;52.350;6.684;2023-09-18T12:16:56;26.37;-6.00
19340;HTU21D;9804;52.350;6.684;2023-09-18T12:19:22;26.49;-6.00
19340;HTU21D;9804;52.350;6.684;2023-09-18T12:21:48;26.70;-6.00
19340;HTU21D;9804;52.350;6.684;2023-09-18T12:24:24;26.81;-6.00
19340;HTU21D;9804;52.350;6.684;2023-09-18T12:26:51;26.77;-6.00
19340;HTU21D;9804;52.350;6.684;2023-09-18T12:29:17;26.93;-6.00
19340;HTU21D;9804;52.350;6.684;2023-09-18T12:31:42;26.82;-6.00
19340;HTU21D;9804;52.350;6.684;2023-09-18T12:34:18;26.57;-6.00
19340;HTU21D;9804;52.350;6.684;2023-09-18T12:36:44;26.79;-6.00
19340;HTU21D;9804;52.350;6.684;2023-09-18T12:39:15;26.84;-6.00
19340;HTU21D;9804;52.350;6.684;2023-09-18T12:41:42;26.99;-6.00
19340;HTU21D;9804;52.350;6.684;2023-09-18T12:44:08;26.79;-6.00
19340;HTU21D;9804;52.350;6.684;2023-09-18T12:46:35;26.35;-6.00
19340;HTU21D;9804;52.350;6.684;2023-09-18T12:49:18;26.42;-6.00
19340;HTU21D;9804;52.350;6.684;2023-09-18T12:51:44;26.50;-6.00
19340;HTU21D;9804;52.350;6.684;2023-09-18T12:54:09;26.53;-6.00
19340;HTU21D;9804;52.350;6.684;2023-09-18T12:56:42;26.67;-6.00
19340;HTU21D;9804;52.350;6.684;2023-09-18T12:59:08;26.48;-6.00
19340;HTU21D;9804;52.350;6.684;2023-09-18T13:01:34;27.13;-6.00
19340;HTU21D;9804;52.350;6.684;2023-09-18T13:03:59;26.69;-6.00
19340;HTU21D;9804;52.350;6.684;2023-09-18T13:06:31;26.79;-6.00
19340;HTU21D;9804;52.350;6.684;2023-09-18T13:09:15;26.52;-6.00
19340;HTU21D;9804;52.350;6.684;2023-09-18T13:11:55;25.82;-6.00
19340;HTU21D;9804;52.350;6.684;2023-09-18T13:14:20;25.80;-6.00
19340;HTU21D;9804;52.350;6.684;2023-09-18T13:16:46;26.16;-6.00
19340;HTU21D;9804;52.350;6.684;2023-09-18T13:19:11;26.57;-6.00
19340;HTU21D;9804;52.350;6.684;2023-09-18T13:21:37;26.46;-6.00
19340;HTU21D;9804;52.350;6.684;2023-09-18T13:24:06;26.91;-6.00
19340;HTU21D;9804;52.350;6.684;2023-09-18T13:26:31;26.73;-6.00
19340;HTU21D;9804;52.350;6.684;2023-09-18T13:28:56;26.70;-6.00
19340;HTU21D;9804;52.350;6.684;2023-09-18T13:31:22;26.97;-6.00
19340;HTU21D;9804;52.350;6.684;2023-09-18T13:33:47;27.00;-6.00
19340;HTU21D;9804;52.350;6.684;2023-09-18T13:36:12;27.08;-6.00
19340;HTU21D;9804;52.350;6.684;2023-09-18T13:38:38;26.73;-6.00
19340;HTU21D;9804;52.350;6.684;2023-09-18T13:41:03;26.64;-6.00
19340;HTU21D;9804;52.350;6.684;2023-09-18T13:43:30;26.86;-6.00
19340;HTU21D;9804;52.350;6.684;2023-09-18T13:46:00;26.85;-6.00
19340;HTU21D;9804;52.350;6.684;2023-09-18T13:48:25;27.05;-6.00
19340;HTU21D;9804;52.350;6.684;2023-09-18T13:50:51;26.97;-6.00
19340;HTU21D;9804;52.350;6.684;2023-09-18T13:53:17;26.94;-6.00
19340;HTU21D;9804;52.350;6.684;2023-09-18T13:55:43;27.15;-6.00
19340;HTU21D;9804;52.350;6.684;2023-09-18T13:58:09;26.67;-6.00
19340;HTU21D;9804;52.350;6.684;2023-09-18T14:00:36;26.61;-6.00
19340;HTU21D;9804;52.350;6.684;2023-09-18T14:03:01;26.91;-6.00
19340;HTU21D;9804;52.350;6.684;2023-09-18T14:05:28;26.70;-6.00
19340;HTU21D;9804;52.350;6.684;2023-09-18T14:07:55;26.66;-6.00
19340;HTU21D;9804;52.350;6.684;2023-09-18T14:10:25;26.78;-6.00
19340;HTU21D;9804;52.350;6.684;2023-09-18T14:12:51;26.64;-6.00
19340;HTU21D;9804;52.350;6.684;2023-09-18T14:15:16;26.65;-6.00
19340;HTU21D;9804;52.350;6.684;2023-09-18T14:17:43;26.41;-6.00
19340;HTU21D;9804;52.350;6.684;2023-09-18T14:20:09;26.20;-6.00
19340;HTU21D;9804;52.350;6.684;2023-09-18T14:22:35;26.54;-6.00
19340;HTU21D;9804;52.350;6.684;2023-09-18T14:25:01;26.78;-6.00
19340;HTU21D;9804;52.350;6.684;2023-09-18T14:27:30;26.77;-6.00
19340;HTU21D;9804;52.350;6.684;2023-09-18T14:29:56;26.95;-6.00
19340;HTU21D;9804;52.350;6.684;2023-09-18T14:32:21;26.77;-6.00
19340;HTU21D;9804;52.350;6.684;2023-09-18T14:34:47;27.02;-6.00
19340;HTU21D;9804;52.350;6.684;2023-09-18T14:37:13;27.26;-6.00
19340;HTU21D;9804;52.350;6.684;2023-09-18T14:39:39;27.34;-6.00
19340;HTU21D;9804;52.350;6.684;2023-09-18T14:42:04;27.36;-6.00
19340;HTU21D;9804;52.350;6.684;2023-09-18T14:44:30;27.16;-6.00
19340;HTU21D;9804;52.350;6.684;2023-09-18T14:46:55;27.64;-6.00
19340;HTU21D;9804;52.350;6.684;2023-09-18T14:49:21;27.44;-6.00
19340;HTU21D;9804;52.350;6.684;2023-09-18T14:51:46;27.32;-6.00
19340;HTU21D;9804;52.350;6.684;2023-09-18T14:54:12;26.98;-6.00
19340;HTU21D;9804;52.350;6.684;2023-09-18T14:56:39;27.25;-6.00
19340;HTU21D;9804;52.350;6.684;2023-09-18T14:59:06;27.12;-6.00
19340;HTU21D;9804;52.350;6.684;2023-09-18T15:01:32;27.02;-6.00
19340;HTU21D;9804;52.350;6.684;2023-09-18T15:03:57;27.06;-6.00
19340;HTU21D;9804;52.350;6.684;2023-09-18T15:06:22;27.01;-6.00
19340;HTU21D;9804;52.350;6.684;2023-09-18T15:08:49;27.22;-6.00
19340;HTU21D;9804;52.350;6.684;2023-09-18T15:11:14;27.19;-6.00
19340;HTU21D;9804;52.350;6.684;2023-09-18T15:13:42;27.25;-6.00
19340;HTU21D;9804;52.350;6.684;2023-09-18T15:16:08;26.99;-6.00
19340;HTU21D;9804;52.350;6.684;2023-09-18T15:18:33;27.14;-6.00
19340;HTU21D;9804;52.350;6.684;2023-09-18T15:20:58;27.24;-6.00
19340;HTU21D;9804;52.350;6.684;2023-09-18T15:23:24;27.06;-6.00
19340;HTU21D;9804;52.350;6.684;2023-09-18T15:25:51;26.97;-6.00
19340;HTU21D;9804;52.350;6.684;2023-09-18T15:28:19;27.14;-6.00
19340;HTU21D;9804;52.350;6.684;2023-09-18T15:30:44;27.21;-6.00
19340;HTU21D;9804;52.350;6.684;2023-09-18T15:33:09;26.94;-6.00
19340;HTU21D;9804;52.350;6.684;2023-09-18T15:35:35;26.56;-6.00